KBBB/BBB METAR and TAF weather

Enter ICAO airport designator
Station Type Date Time Source
KBBB METAR 2020/01/18 04:35 UTC NOAA

KBBB 180435Z AUTO 16010G15KT 7SM DZ OVC027 M05/M06 A2985 RMK AO2


Station Type Date Time Source
KBBB Decoded METAR 2020/01/18 04:35 UTC NOAA

Benson Municipal, MN, United States (KBBB) 45-19N 095-39W
Jan 17, 2020 - 11:35 PM EST / 2020.01.18 0435 UTC
Wind: from the SSE (160 degrees) at 12 MPH (10 KT) gusting to 17 MPH (15 KT):0
Visibility: 7 mile(s):0
Sky conditions: overcast
Weather: drizzle
Temperature: 23 F (-5 C)
Windchill: 12 F (-11 C):1
Dew Point: 21 F (-6 C)
Relative Humidity: 92%
Pressure (altimeter): 29.85 in. Hg (1010 hPa)
ob: KBBB 180435Z AUTO 16010G15KT 7SM DZ OVC027 M05/M06 A2985 RMK AO2
cycle: 4

Station Type Date Time Source
KBBB TAF UTC NOAA

Error!

Example: see airport list